Mega Smeralda — ICIU — position and weather

sailwx.info

Track history (hours):
 
Tides and Currents Weather Stations Pressure Air Temp Water Temp Dewpoint Dewpoint Depression Visibility Wind Speed Wind Dir Waves Ship Positions

Mega Smeralda

Last reported at 2017-May-24 03:02 UTC. Time now 2017-May-24 04:16 UTC.
Position N 41°56' E 008°17'.

Length 171 m; draft 6.3 m.

Type: Passenger vessel. MMSI: 247228600.

Date/timePositionNaut miles runAvg speedWind from/ knotsBaromVisibWave heightAir tempDewpointWater temp
2017-May-24 03:02N 41°56' E 008°17'116.0
2017-May-24 03:00N 41°56' E 008°16'815.7
2017-May-24 02:28N 42°01' E 008°07'3015.8
2017-May-24 00:36N 42°17' E 007°33'216.0
2017-May-24 00:30N 42°18' E 007°32'1316.2
2017-May-23 23:43N 42°23' E 007°16'316.5
2017-May-23 23:30N 42°25' E 007°12'916.5
2017-May-23 22:59N 42°29' E 007°02'816.4
2017-May-23 22:28N 42°34' E 006°52'816.5
2017-May-23 22:00N 42°38' E 006°44'816.5
2017-May-23 21:31N 42°42' E 006°34'816.4
2017-May-23 21:00N 42°46' E 006°24'816.3
2017-May-23 20:31N 42°51' E 006°15'816.1
2017-May-23 20:00N 42°55' E 006°06'815.9
2017-May-23 19:30N 43°02' E 006°00'611.5
2017-May-23 19:01N 43°07' E 005°55'1 0.7
2017-May-23 18:17N 43°07' E 005°56'0 0.0
2017-May-23 17:59N 43°07' E 005°56'0 0.0
2017-May-23 17:20N 43°07' E 005°56'0 0.0
2017-May-23 16:56N 43°07' E 005°56'0 0.0
2017-May-23 16:29N 43°07' E 005°56'0 0.0
2017-May-23 15:59N 43°07' E 005°56'0 0.0
2017-May-23 14:44N 43°07' E 005°56'0 0.0
2017-May-23 14:14N 43°07' E 005°56'0 0.0
2017-May-23 12:14N 43°07' E 005°56'0 0.0
2017-May-23 11:56N 43°07' E 005°56'0 0.0
2017-May-23 11:17N 43°07' E 005°56'0 0.0
2017-May-23 10:53N 43°07' E 005°56'0 0.0
2017-May-23 10:08N 43°07' E 005°56'0 0.0
2017-May-23 09:56N 43°07' E 005°56'0 0.0
2017-May-23 09:26N 43°07' E 005°56'0 0.0
2017-May-23 08:59N 43°07' E 005°56'0 0.0
2017-May-23 08:26N 43°07' E 005°56'0 0.0
2017-May-23 07:56N 43°07' E 005°56'0 0.0
2017-May-23 06:08N 43°07' E 005°56'0 0.0
2017-May-23 05:59N 43°07' E 005°56'0 0.0
2017-May-23 05:29N 43°07' E 005°56'0 0.5
2017-May-23 05:00N 43°07' E 005°56'6 9.0
2017-May-23 04:21N 43°02' E 006°01'412.3
2017-May-23 04:00N 42°59' E 006°04'612.5
2017-May-23 03:30N 42°55' E 006°11'713.6
2017-May-23 03:00N 42°52' E 006°19'713.7
2017-May-23 02:30N 42°48' E 006°27'713.5
2017-May-23 02:01N 42°44' E 006°34'713.6
2017-May-23 01:30N 42°41' E 006°42'713.8
2017-May-23 01:00N 42°37' E 006°50'713.8
2017-May-23 00:30N 42°34' E 006°58'713.8
2017-May-23 00:01N 42°30' E 007°06'713.7
2017-May-22 23:30N 42°26' E 007°14'713.4
2017-May-22 23:00N 42°23' E 007°22'713.3
2017-May-22 22:30N 42°19' E 007°29'713.5
2017-May-22 22:00N 42°16' E 007°37'713.5
2017-May-22 21:30N 42°12' E 007°45'713.8
2017-May-22 21:00N 42°08' E 007°52'714.1
2017-May-22 20:30N 42°04' E 008°00'714.0
2017-May-22 20:00N 42°00' E 008°08'713.7
2017-May-22 19:30N 41°56' E 008°16'815.7
2017-May-22 19:00N 41°52' E 008°25'816.2
2017-May-22 18:30N 41°49' E 008°35'915.9
2017-May-22 17:57N 41°54' E 008°45'2 0.1
2017-May-22 05:50N 41°55' E 008°45'0 0.0
2017-May-22 05:04N 41°55' E 008°45'0 0.0
2017-May-22 04:54N 41°55' E 008°45'2 4.9
2017-May-22 04:25N 41°53' E 008°44'614.8
2017-May-22 04:00N 41°50' E 008°37'815.6
2017-May-22 03:28N 41°52' E 008°26'816.3
2017-May-22 03:00N 41°56' E 008°17'816.3
2017-May-22 02:30N 42°00' E 008°08'816.2
2017-May-22 02:00N 42°05' E 007°59'816.1
2017-May-22 01:30N 42°10' E 007°51'815.7
2017-May-22 01:00N 42°14' E 007°42'915.9
2017-May-22 00:27N 42°20' E 007°33'1115.9
2017-May-21 23:46N 42°25' E 007°20'516.4
2017-May-21 23:28N 42°27' E 007°14'716.2
2017-May-21 23:01N 42°30' E 007°05'816.3
2017-May-21 22:29N 42°34' E 006°55'816.3
2017-May-21 22:01N 42°38' E 006°46'916.9
2017-May-21 21:30N 42°43' E 006°35'816.9
2017-May-21 21:00N 42°47' E 006°26'916.5
2017-May-21 20:28N 42°52' E 006°16'916.1
2017-May-21 19:55N 42°57' E 006°06'716.1
2017-May-21 19:30N 43°02' E 006°00'611.3
2017-May-21 19:00N 43°07' E 005°55'1 1.3
2017-May-21 18:30N 43°07' E 005°56'0 0.0
2017-May-21 18:00N 43°07' E 005°56'0 0.0
2017-May-21 17:30N 43°07' E 005°56'0 0.0
2017-May-21 17:00N 43°07' E 005°56'0 0.0
2017-May-21 16:30N 43°07' E 005°56'0 0.0
2017-May-21 16:00N 43°07' E 005°56'0 0.0
2017-May-21 15:30N 43°07' E 005°56'0 0.0
2017-May-21 15:00N 43°07' E 005°56'0 0.0
2017-May-21 14:30N 43°07' E 005°56'0 0.0
2017-May-21 13:30N 43°07' E 005°56'0 0.0
2017-May-21 12:57N 43°07' E 005°56'0 0.0
2017-May-21 12:30N 43°07' E 005°56'0 0.0
2017-May-21 12:00N 43°07' E 005°56'0 0.0
2017-May-21 11:30N 43°07' E 005°56'0 0.0
2017-May-21 11:00N 43°07' E 005°56'0 0.0
2017-May-21 10:27N 43°07' E 005°56'0 0.0
2017-May-21 10:00N 43°07' E 005°56'0 0.0
2017-May-21 09:27N 43°07' E 005°56'0 0.0
2017-May-21 09:00N 43°07' E 005°56'0 0.0
2017-May-21 08:30N 43°07' E 005°56'0 0.0
2017-May-21 08:00N 43°07' E 005°56'0 0.0
2017-May-21 07:27N 43°07' E 005°56'0 0.0
2017-May-21 06:54N 43°07' E 005°56'0 0.0
2017-May-21 06:30N 43°07' E 005°56'0 0.0
2017-May-21 06:00N 43°07' E 005°56'3413.6
2017-May-21 03:29N 42°45' E 006°32'915.3
2017-May-21 02:53N 42°40' E 006°43'615.3
2017-May-21 02:30N 42°37' E 006°49'815.3
2017-May-21 02:00N 42°33' E 006°58'815.5
2017-May-21 01:28N 42°29' E 007°07'715.5
2017-May-21 01:00N 42°25' E 007°16'815.4
2017-May-21 00:30N 42°21' E 007°24'815.1
2017-May-21 00:00N 42°17' E 007°33'815.2
2017-May-20 23:30N 42°12' E 007°42'815.3
2017-May-20 23:00N 42°08' E 007°50'815.2
2017-May-20 22:30N 42°04' E 007°59'815.2
2017-May-20 22:00N 41°60' E 008°07'815.4
2017-May-20 21:29N 41°55' E 008°16'1315.6
2017-May-20 20:38N 41°48' E 008°31'215.4
2017-May-20 20:30N 41°48' E 008°34'714.6
2017-May-20 19:59N 41°52' E 008°42'4 3.6
2017-May-20 18:54N 41°55' E 008°45'4 9.4
2017-May-20 18:30N 41°52' E 008°42'918.3
2017-May-20 18:00N 41°44' E 008°37'918.8
2017-May-20 17:30N 41°35' E 008°34'918.7
2017-May-20 17:01N 41°26' E 008°32'1019.0
2017-May-20 16:30N 41°16' E 008°30'1019.3
2017-May-20 16:00N 41°06' E 008°28'1019.4
2017-May-20 15:28N 40°56' E 008°26'613.0
2017-May-20 14:59N 40°50' E 008°24'0 0.1
2017-May-20 14:25N 40°50' E 008°24'0 0.0
2017-May-20 13:25N 40°50' E 008°24'0 0.0
2017-May-20 12:52N 40°50' E 008°24'0 0.0
2017-May-20 12:25N 40°50' E 008°24'0 0.0
2017-May-20 11:52N 40°50' E 008°24'0 0.0
2017-May-20 11:28N 40°50' E 008°24'0 0.0
2017-May-20 10:58N 40°50' E 008°24'0 0.0
2017-May-20 10:28N 40°50' E 008°24'0 0.0
2017-May-20 09:52N 40°50' E 008°24'0 0.0
2017-May-20 09:22N 40°50' E 008°24'0 0.4
2017-May-20 09:00N 40°51' E 008°24'712.6
2017-May-20 08:26N 40°56' E 008°29'919.8
2017-May-20 07:59N 41°04' E 008°35'1019.9
2017-May-20 07:29N 41°14' E 008°33'919.9
2017-May-20 07:00N 41°23' E 008°31'1019.7
2017-May-20 06:29N 41°34' E 008°30'1019.9
2017-May-20 06:00N 41°43' E 008°34'1019.2
2017-May-20 05:29N 41°51' E 008°41'5 5.9
2017-May-20 04:39N 41°55' E 008°45'0 0.0
2017-May-20 04:12N 41°55' E 008°45'1 3.1
2017-May-20 03:59N 41°55' E 008°45'815.5
2017-May-20 03:28N 41°50' E 008°37'918.9
2017-May-20 02:59N 41°52' E 008°25'1019.9
2017-May-20 02:29N 41°58' E 008°14'1019.8
2017-May-20 02:00N 42°03' E 008°03'11019.7
2017-May-19 20:24N 43°04' E 005°58'3 8.2
2017-May-19 20:00N 43°07' E 005°56'0 0.7
2017-May-19 19:30N 43°07' E 005°56'0 0.0
2017-May-19 19:00N 43°07' E 005°56'0 0.0
2017-May-19 18:15N 43°07' E 005°56'0 0.0
2017-May-19 17:54N 43°07' E 005°56'0 0.1
2017-May-19 17:30N 43°07' E 005°56'3414.6
2017-May-19 15:12N 42°45' E 006°32'418.0
2017-May-19 15:00N 42°44' E 006°36'4918.5
2017-May-19 12:19N 42°17' E 007°33'819.0
2017-May-19 11:54N 42°13' E 007°42'819.0
2017-May-19 11:29N 42°09' E 007°51'1719.1
2017-May-19 10:35N 41°60' E 008°10'1919.5
2017-May-19 09:37N 41°49' E 008°32'219.5
2017-May-19 09:30N 41°49' E 008°35'917.9
2017-May-19 09:00N 41°54' E 008°45'1 0.8
2017-May-19 07:25N 41°55' E 008°45'52 8.3
2017-May-19 01:08N 42°14' E 007°39'215.8
2017-May-19 01:00N 42°15' E 007°37'815.9
2017-May-19 00:30N 42°19' E 007°28'815.9
2017-May-19 00:00N 42°23' E 007°19'815.8
2017-May-18 23:30N 42°28' E 007°10'816.0
2017-May-18 23:00N 42°32' E 007°00'816.0
2017-May-18 22:30N 42°36' E 006°51'2616.2
2017-May-18 20:54N 42°50' E 006°21'616.2
2017-May-18 20:30N 42°53' E 006°14'1016.2
2017-May-18 19:52N 42°60' E 006°02'615.5
2017-May-18 19:30N 43°04' E 005°58'3 5.9
2017-May-18 19:00N 43°07' E 005°55'1 1.0
2017-May-18 18:28N 43°07' E 005°56'0 0.0
2017-May-18 17:58N 43°07' E 005°56'0 0.0
2017-May-18 17:25N 43°07' E 005°56'0 0.0
2017-May-18 16:52N 43°07' E 005°56'0 0.0
2017-May-18 16:28N 43°07' E 005°56'0 0.0
2017-May-18 15:52N 43°07' E 005°56'0 0.0
2017-May-18 15:28N 43°07' E 005°56'0 0.0
2017-May-18 14:41N 43°07' E 005°56'0 0.0
2017-May-18 14:22N 43°07' E 005°56'0 0.0
2017-May-18 10:50N 43°07' E 005°56'0 0.0
2017-May-18 07:31N 43°07' E 005°56'0 0.0
2017-May-18 07:13N 43°07' E 005°56'0 0.0
2017-May-18 06:58N 43°07' E 005°56'0 0.0
2017-May-18 06:28N 43°07' E 005°56'0 0.0
2017-May-18 05:58N 43°07' E 005°56'0 0.0
2017-May-18 05:25N 43°07' E 005°56'0 0.0
2017-May-18 05:00N 43°07' E 005°56'3912.1
2017-May-18 01:46N 42°42' E 006°38'612.9
2017-May-18 01:19N 42°39' E 006°44'613.0
2017-May-18 00:50N 42°36' E 006°52'3313.5
2017-May-17 22:23N 42°19' E 007°30'513.7
2017-May-17 22:00N 42°17' E 007°36'713.7
2017-May-17 21:30N 42°13' E 007°44'714.0
2017-May-17 21:00N 42°08' E 007°51'714.0
2017-May-17 20:30N 42°05' E 007°59'814.0
2017-May-17 19:57N 42°01' E 008°08'613.5
2017-May-17 19:30N 41°57' E 008°15'917.6
2017-May-17 19:00N 41°53' E 008°25'1016.7
2017-May-17 18:25N 41°50' E 008°37'716.6
2017-May-17 17:59N 41°54' E 008°45'1 0.2
2017-May-17 12:18N 41°55' E 008°45'0 0.0
2017-May-17 11:54N 41°55' E 008°45'128 8.3
2017-May-16 20:30N 42°51' E 006°08'1114.3
2017-May-16 19:42N 43°00' E 005°59'415.6
2017-May-16 19:27N 43°04' E 005°58'3 7.8
2017-May-16 19:01N 43°07' E 005°56'0 0.5
2017-May-16 18:29N 43°07' E 005°56'0 0.0
2017-May-16 17:59N 43°07' E 005°56'0 0.0
2017-May-16 17:29N 43°07' E 005°56'0 0.0
2017-May-16 16:59N 43°07' E 005°56'0 0.0
2017-May-16 16:28N 43°07' E 005°56'0 0.0
2017-May-16 15:59N 43°07' E 005°56'0 0.0
2017-May-16 15:28N 43°07' E 005°56'0 0.0
2017-May-16 14:37N 43°07' E 005°56'0 0.0
2017-May-16 07:01N 43°07' E 005°56'0 0.0
2017-May-16 06:58N 43°07' E 005°56'0 0.0
2017-May-16 06:28N 43°07' E 005°56'0 0.0
2017-May-16 05:49N 43°07' E 005°56'0 0.0
2017-May-16 05:22N 43°07' E 005°56'0 0.3
2017-May-16 05:00N 43°07' E 005°56'1110.6
2017-May-16 03:57N 42°58' E 006°05'613.3
2017-May-16 03:31N 42°54' E 006°11'713.1
2017-May-16 03:00N 42°51' E 006°19'814.0
2017-May-16 02:27N 42°47' E 006°28'1913.5
2017-May-16 01:01N 42°37' E 006°50'113.5
2017-May-16 00:56N 42°36' E 006°52'613.9
2017-May-16 00:30N 42°33' E 006°59'713.8
2017-May-16 00:00N 42°29' E 007°06'713.7
2017-May-15 23:30N 42°25' E 007°14'813.8
2017-May-15 22:56N 42°22' E 007°23'613.9
2017-May-15 22:30N 42°18' E 007°30'713.9
2017-May-15 22:00N 42°15' E 007°38'714.1
2017-May-15 21:31N 42°11' E 007°46'713.3
2017-May-15 20:59N 42°07' E 007°54'2117.3
2017-May-15 19:45N 41°56' E 008°18'1613.7
2017-May-15 18:33N 41°50' E 008°39'113.5
2017-May-15 18:31N 41°50' E 008°39'87 4.4
2017-May-14 22:38N 42°33' E 006°57'416.5
2017-May-14 22:24N 42°36' E 006°52'1816.7
2017-May-14 21:19N 42°45' E 006°32'516.5
2017-May-14 21:00N 42°48' E 006°26'916.4
2017-May-14 20:26N 42°53' E 006°15'1716.3
2017-May-14 19:25N 43°04' E 005°58'3 8.0
2017-May-14 19:00N 43°07' E 005°56'0 0.3
2017-May-14 18:29N 43°07' E 005°56'0 0.0
2017-May-14 17:59N 43°07' E 005°56'0 0.0
2017-May-14 07:50N 43°07' E 005°56'0 0.0
2017-May-14 06:23N 43°07' E 005°56'0 0.1
2017-May-14 06:00N 43°07' E 005°56'  
Track history (hours):
 
Tides and Currents Weather Stations Pressure Air Temp Water Temp Dewpoint Dewpoint Depression Visibility Wind Speed Wind Dir Waves Ship Positions

Mega Smeralda

Last reported at 2017-May-24 03:02 UTC. Time now 2017-May-24 04:16 UTC.
Position N 41°56' E 008°17'.

Length 171 m; draft 6.3 m.

Type: Passenger vessel. MMSI: 247228600.

Date/timePositionNaut miles runAvg speedWind from/ knotsBaromVisibWave heightAir tempDewpointWater temp
2017-May-24 03:02N 41°56' E 008°17'116.0
2017-May-24 03:00N 41°56' E 008°16'815.7
2017-May-24 02:28N 42°01' E 008°07'3015.8
2017-May-24 00:36N 42°17' E 007°33'216.0
2017-May-24 00:30N 42°18' E 007°32'1316.2
2017-May-23 23:43N 42°23' E 007°16'316.5
2017-May-23 23:30N 42°25' E 007°12'916.5
2017-May-23 22:59N 42°29' E 007°02'816.4
2017-May-23 22:28N 42°34' E 006°52'816.5
2017-May-23 22:00N 42°38' E 006°44'816.5
2017-May-23 21:31N 42°42' E 006°34'816.4
2017-May-23 21:00N 42°46' E 006°24'816.3
2017-May-23 20:31N 42°51' E 006°15'816.1
2017-May-23 20:00N 42°55' E 006°06'815.9
2017-May-23 19:30N 43°02' E 006°00'611.5
2017-May-23 19:01N 43°07' E 005°55'1 0.7
2017-May-23 18:17N 43°07' E 005°56'0 0.0
2017-May-23 17:59N 43°07' E 005°56'0 0.0
2017-May-23 17:20N 43°07' E 005°56'0 0.0
2017-May-23 16:56N 43°07' E 005°56'0 0.0
2017-May-23 16:29N 43°07' E 005°56'0 0.0
2017-May-23 15:59N 43°07' E 005°56'0 0.0
2017-May-23 14:44N 43°07' E 005°56'0 0.0
2017-May-23 14:14N 43°07' E 005°56'0 0.0
2017-May-23 12:14N 43°07' E 005°56'0 0.0
2017-May-23 11:56N 43°07' E 005°56'0 0.0
2017-May-23 11:17N 43°07' E 005°56'0 0.0
2017-May-23 10:53N 43°07' E 005°56'0 0.0
2017-May-23 10:08N 43°07' E 005°56'0 0.0
2017-May-23 09:56N 43°07' E 005°56'0 0.0
2017-May-23 09:26N 43°07' E 005°56'0 0.0
2017-May-23 08:59N 43°07' E 005°56'0 0.0
2017-May-23 08:26N 43°07' E 005°56'0 0.0
2017-May-23 07:56N 43°07' E 005°56'0 0.0
2017-May-23 06:08N 43°07' E 005°56'0 0.0
2017-May-23 05:59N 43°07' E 005°56'0 0.0
2017-May-23 05:29N 43°07' E 005°56'0 0.5
2017-May-23 05:00N 43°07' E 005°56'6 9.0
2017-May-23 04:21N 43°02' E 006°01'412.3
2017-May-23 04:00N 42°59' E 006°04'612.5
2017-May-23 03:30N 42°55' E 006°11'713.6
2017-May-23 03:00N 42°52' E 006°19'713.7
2017-May-23 02:30N 42°48' E 006°27'713.5
2017-May-23 02:01N 42°44' E 006°34'713.6
2017-May-23 01:30N 42°41' E 006°42'713.8
2017-May-23 01:00N 42°37' E 006°50'713.8
2017-May-23 00:30N 42°34' E 006°58'713.8
2017-May-23 00:01N 42°30' E 007°06'713.7
2017-May-22 23:30N 42°26' E 007°14'713.4
2017-May-22 23:00N 42°23' E 007°22'713.3
2017-May-22 22:30N 42°19' E 007°29'713.5
2017-May-22 22:00N 42°16' E 007°37'713.5
2017-May-22 21:30N 42°12' E 007°45'713.8
2017-May-22 21:00N 42°08' E 007°52'714.1
2017-May-22 20:30N 42°04' E 008°00'714.0
2017-May-22 20:00N 42°00' E 008°08'713.7
2017-May-22 19:30N 41°56' E 008°16'815.7
2017-May-22 19:00N 41°52' E 008°25'816.2
2017-May-22 18:30N 41°49' E 008°35'915.9
2017-May-22 17:57N 41°54' E 008°45'2 0.1
2017-May-22 05:50N 41°55' E 008°45'0 0.0
2017-May-22 05:04N 41°55' E 008°45'0 0.0
2017-May-22 04:54N 41°55' E 008°45'2 4.9
2017-May-22 04:25N 41°53' E 008°44'614.8
2017-May-22 04:00N 41°50' E 008°37'815.6
2017-May-22 03:28N 41°52' E 008°26'816.3
2017-May-22 03:00N 41°56' E 008°17'816.3
2017-May-22 02:30N 42°00' E 008°08'816.2
2017-May-22 02:00N 42°05' E 007°59'816.1
2017-May-22 01:30N 42°10' E 007°51'815.7
2017-May-22 01:00N 42°14' E 007°42'915.9
2017-May-22 00:27N 42°20' E 007°33'1115.9
2017-May-21 23:46N 42°25' E 007°20'516.4
2017-May-21 23:28N 42°27' E 007°14'716.2
2017-May-21 23:01N 42°30' E 007°05'816.3
2017-May-21 22:29N 42°34' E 006°55'816.3
2017-May-21 22:01N 42°38' E 006°46'916.9
2017-May-21 21:30N 42°43' E 006°35'816.9
2017-May-21 21:00N 42°47' E 006°26'916.5
2017-May-21 20:28N 42°52' E 006°16'916.1
2017-May-21 19:55N 42°57' E 006°06'716.1
2017-May-21 19:30N 43°02' E 006°00'611.3
2017-May-21 19:00N 43°07' E 005°55'1 1.3
2017-May-21 18:30N 43°07' E 005°56'0 0.0
2017-May-21 18:00N 43°07' E 005°56'0 0.0
2017-May-21 17:30N 43°07' E 005°56'0 0.0
2017-May-21 17:00N 43°07' E 005°56'0 0.0
2017-May-21 16:30N 43°07' E 005°56'0 0.0
2017-May-21 16:00N 43°07' E 005°56'0 0.0
2017-May-21 15:30N 43°07' E 005°56'0 0.0
2017-May-21 15:00N 43°07' E 005°56'0 0.0
2017-May-21 14:30N 43°07' E 005°56'0 0.0
2017-May-21 13:30N 43°07' E 005°56'0 0.0
2017-May-21 12:57N 43°07' E 005°56'0 0.0
2017-May-21 12:30N 43°07' E 005°56'0 0.0
2017-May-21 12:00N 43°07' E 005°56'0 0.0
2017-May-21 11:30N 43°07' E 005°56'0 0.0
2017-May-21 11:00N 43°07' E 005°56'0 0.0
2017-May-21 10:27N 43°07' E 005°56'0 0.0
2017-May-21 10:00N 43°07' E 005°56'0 0.0
2017-May-21 09:27N 43°07' E 005°56'0 0.0
2017-May-21 09:00N 43°07' E 005°56'0 0.0
2017-May-21 08:30N 43°07' E 005°56'0 0.0
2017-May-21 08:00N 43°07' E 005°56'0 0.0
2017-May-21 07:27N 43°07' E 005°56'0 0.0
2017-May-21 06:54N 43°07' E 005°56'0 0.0
2017-May-21 06:30N 43°07' E 005°56'0 0.0
2017-May-21 06:00N 43°07' E 005°56'3413.6
2017-May-21 03:29N 42°45' E 006°32'915.3
2017-May-21 02:53N 42°40' E 006°43'615.3
2017-May-21 02:30N 42°37' E 006°49'815.3
2017-May-21 02:00N 42°33' E 006°58'815.5
2017-May-21 01:28N 42°29' E 007°07'715.5
2017-May-21 01:00N 42°25' E 007°16'815.4
2017-May-21 00:30N 42°21' E 007°24'815.1
2017-May-21 00:00N 42°17' E 007°33'815.2
2017-May-20 23:30N 42°12' E 007°42'815.3
2017-May-20 23:00N 42°08' E 007°50'815.2
2017-May-20 22:30N 42°04' E 007°59'815.2
2017-May-20 22:00N 41°60' E 008°07'815.4
2017-May-20 21:29N 41°55' E 008°16'1315.6
2017-May-20 20:38N 41°48' E 008°31'215.4
2017-May-20 20:30N 41°48' E 008°34'714.6
2017-May-20 19:59N 41°52' E 008°42'4 3.6
2017-May-20 18:54N 41°55' E 008°45'4 9.4
2017-May-20 18:30N 41°52' E 008°42'918.3
2017-May-20 18:00N 41°44' E 008°37'918.8
2017-May-20 17:30N 41°35' E 008°34'918.7
2017-May-20 17:01N 41°26' E 008°32'1019.0
2017-May-20 16:30N 41°16' E 008°30'1019.3
2017-May-20 16:00N 41°06' E 008°28'1019.4
2017-May-20 15:28N 40°56' E 008°26'613.0
2017-May-20 14:59N 40°50' E 008°24'0 0.1
2017-May-20 14:25N 40°50' E 008°24'0 0.0
2017-May-20 13:25N 40°50' E 008°24'0 0.0
2017-May-20 12:52N 40°50' E 008°24'0 0.0
2017-May-20 12:25N 40°50' E 008°24'0 0.0
2017-May-20 11:52N 40°50' E 008°24'0 0.0
2017-May-20 11:28N 40°50' E 008°24'0 0.0
2017-May-20 10:58N 40°50' E 008°24'0 0.0
2017-May-20 10:28N 40°50' E 008°24'0 0.0
2017-May-20 09:52N 40°50' E 008°24'0 0.0
2017-May-20 09:22N 40°50' E 008°24'0 0.4
2017-May-20 09:00N 40°51' E 008°24'712.6
2017-May-20 08:26N 40°56' E 008°29'919.8
2017-May-20 07:59N 41°04' E 008°35'1019.9
2017-May-20 07:29N 41°14' E 008°33'919.9
2017-May-20 07:00N 41°23' E 008°31'1019.7
2017-May-20 06:29N 41°34' E 008°30'1019.9
2017-May-20 06:00N 41°43' E 008°34'1019.2
2017-May-20 05:29N 41°51' E 008°41'5 5.9
2017-May-20 04:39N 41°55' E 008°45'0 0.0
2017-May-20 04:12N 41°55' E 008°45'1 3.1
2017-May-20 03:59N 41°55' E 008°45'815.5
2017-May-20 03:28N 41°50' E 008°37'918.9
2017-May-20 02:59N 41°52' E 008°25'1019.9
2017-May-20 02:29N 41°58' E 008°14'1019.8
2017-May-20 02:00N 42°03' E 008°03'11019.7
2017-May-19 20:24N 43°04' E 005°58'3 8.2
2017-May-19 20:00N 43°07' E 005°56'0 0.7
2017-May-19 19:30N 43°07' E 005°56'0 0.0
2017-May-19 19:00N 43°07' E 005°56'0 0.0
2017-May-19 18:15N 43°07' E 005°56'0 0.0
2017-May-19 17:54N 43°07' E 005°56'0 0.1
2017-May-19 17:30N 43°07' E 005°56'3414.6
2017-May-19 15:12N 42°45' E 006°32'418.0
2017-May-19 15:00N 42°44' E 006°36'4918.5
2017-May-19 12:19N 42°17' E 007°33'819.0
2017-May-19 11:54N 42°13' E 007°42'819.0
2017-May-19 11:29N 42°09' E 007°51'1719.1
2017-May-19 10:35N 41°60' E 008°10'1919.5
2017-May-19 09:37N 41°49' E 008°32'219.5
2017-May-19 09:30N 41°49' E 008°35'917.9
2017-May-19 09:00N 41°54' E 008°45'1 0.8
2017-May-19 07:25N 41°55' E 008°45'52 8.3
2017-May-19 01:08N 42°14' E 007°39'215.8
2017-May-19 01:00N 42°15' E 007°37'815.9
2017-May-19 00:30N 42°19' E 007°28'815.9
2017-May-19 00:00N 42°23' E 007°19'815.8
2017-May-18 23:30N 42°28' E 007°10'816.0
2017-May-18 23:00N 42°32' E 007°00'816.0
2017-May-18 22:30N 42°36' E 006°51'2616.2
2017-May-18 20:54N 42°50' E 006°21'616.2
2017-May-18 20:30N 42°53' E 006°14'1016.2
2017-May-18 19:52N 42°60' E 006°02'615.5
2017-May-18 19:30N 43°04' E 005°58'3 5.9
2017-May-18 19:00N 43°07' E 005°55'1 1.0
2017-May-18 18:28N 43°07' E 005°56'0 0.0
2017-May-18 17:58N 43°07' E 005°56'0 0.0
2017-May-18 17:25N 43°07' E 005°56'0 0.0
2017-May-18 16:52N 43°07' E 005°56'0 0.0
2017-May-18 16:28N 43°07' E 005°56'0 0.0
2017-May-18 15:52N 43°07' E 005°56'0 0.0
2017-May-18 15:28N 43°07' E 005°56'0 0.0
2017-May-18 14:41N 43°07' E 005°56'0 0.0
2017-May-18 14:22N 43°07' E 005°56'0 0.0
2017-May-18 10:50N 43°07' E 005°56'0 0.0
2017-May-18 07:31N 43°07' E 005°56'0 0.0
2017-May-18 07:13N 43°07' E 005°56'0 0.0
2017-May-18 06:58N 43°07' E 005°56'0 0.0
2017-May-18 06:28N 43°07' E 005°56'0 0.0
2017-May-18 05:58N 43°07' E 005°56'0 0.0
2017-May-18 05:25N 43°07' E 005°56'0 0.0
2017-May-18 05:00N 43°07' E 005°56'3912.1
2017-May-18 01:46N 42°42' E 006°38'612.9
2017-May-18 01:19N 42°39' E 006°44'613.0
2017-May-18 00:50N 42°36' E 006°52'3313.5
2017-May-17 22:23N 42°19' E 007°30'513.7
2017-May-17 22:00N 42°17' E 007°36'713.7
2017-May-17 21:30N 42°13' E 007°44'714.0
2017-May-17 21:00N 42°08' E 007°51'714.0
2017-May-17 20:30N 42°05' E 007°59'814.0
2017-May-17 19:57N 42°01' E 008°08'613.5
2017-May-17 19:30N 41°57' E 008°15'917.6
2017-May-17 19:00N 41°53' E 008°25'1016.7
2017-May-17 18:25N 41°50' E 008°37'716.6
2017-May-17 17:59N 41°54' E 008°45'1 0.2
2017-May-17 12:18N 41°55' E 008°45'0 0.0
2017-May-17 11:54N 41°55' E 008°45'128 8.3
2017-May-16 20:30N 42°51' E 006°08'1114.3
2017-May-16 19:42N 43°00' E 005°59'415.6
2017-May-16 19:27N 43°04' E 005°58'3 7.8
2017-May-16 19:01N 43°07' E 005°56'0 0.5
2017-May-16 18:29N 43°07' E 005°56'0 0.0
2017-May-16 17:59N 43°07' E 005°56'0 0.0
2017-May-16 17:29N 43°07' E 005°56'0 0.0
2017-May-16 16:59N 43°07' E 005°56'0 0.0
2017-May-16 16:28N 43°07' E 005°56'0 0.0
2017-May-16 15:59N 43°07' E 005°56'0 0.0
2017-May-16 15:28N 43°07' E 005°56'0 0.0
2017-May-16 14:37N 43°07' E 005°56'0 0.0
2017-May-16 07:01N 43°07' E 005°56'0 0.0
2017-May-16 06:58N 43°07' E 005°56'0 0.0
2017-May-16 06:28N 43°07' E 005°56'0 0.0
2017-May-16 05:49N 43°07' E 005°56'0 0.0
2017-May-16 05:22N 43°07' E 005°56'0 0.3
2017-May-16 05:00N 43°07' E 005°56'1110.6
2017-May-16 03:57N 42°58' E 006°05'613.3
2017-May-16 03:31N 42°54' E 006°11'713.1
2017-May-16 03:00N 42°51' E 006°19'814.0
2017-May-16 02:27N 42°47' E 006°28'1913.5
2017-May-16 01:01N 42°37' E 006°50'113.5
2017-May-16 00:56N 42°36' E 006°52'613.9
2017-May-16 00:30N 42°33' E 006°59'713.8
2017-May-16 00:00N 42°29' E 007°06'713.7
2017-May-15 23:30N 42°25' E 007°14'813.8
2017-May-15 22:56N 42°22' E 007°23'613.9
2017-May-15 22:30N 42°18' E 007°30'713.9
2017-May-15 22:00N 42°15' E 007°38'714.1
2017-May-15 21:31N 42°11' E 007°46'713.3
2017-May-15 20:59N 42°07' E 007°54'2117.3
2017-May-15 19:45N 41°56' E 008°18'1613.7
2017-May-15 18:33N 41°50' E 008°39'113.5
2017-May-15 18:31N 41°50' E 008°39'87 4.4
2017-May-14 22:38N 42°33' E 006°57'416.5
2017-May-14 22:24N 42°36' E 006°52'1816.7
2017-May-14 21:19N 42°45' E 006°32'516.5
2017-May-14 21:00N 42°48' E 006°26'916.4
2017-May-14 20:26N 42°53' E 006°15'1716.3
2017-May-14 19:25N 43°04' E 005°58'3 8.0
2017-May-14 19:00N 43°07' E 005°56'0 0.3
2017-May-14 18:29N 43°07' E 005°56'0 0.0
2017-May-14 17:59N 43°07' E 005°56'0 0.0
2017-May-14 07:50N 43°07' E 005°56'0 0.0
2017-May-14 06:23N 43°07' E 005°56'0 0.1
2017-May-14 06:00N 43°07' E 005°56'  

Dump ship's entire track history